sensor_id;sensor_type;location;lat;lon;timestamp;pressure;altitude;pressure_sealevel;temperature;humidity
48015;BME280;33780;51.034;7.120;2022-09-09T00:00:23;100095.81;;;19.34;66.63
48015;BME280;33780;51.034;7.120;2022-09-09T00:02:55;100098.53;;;19.34;66.57
48015;BME280;33780;51.034;7.120;2022-09-09T00:05:44;100085.19;;;19.32;66.78
48015;BME280;33780;51.034;7.120;2022-09-09T00:08:19;100087.06;;;19.32;66.82
48015;BME280;33780;51.034;7.120;2022-09-09T00:10:51;100086.22;;;19.31;66.81
48015;BME280;33780;51.034;7.120;2022-09-09T00:16:24;100084.56;;;19.30;67.01
48015;BME280;33780;51.034;7.120;2022-09-09T00:19:18;100072.84;;;19.30;67.00
48015;BME280;33780;51.034;7.120;2022-09-09T00:22:15;100073.91;;;19.29;67.11
48015;BME280;33780;51.034;7.120;2022-09-09T00:24:54;100070.75;;;19.25;67.05
48015;BME280;33780;51.034;7.120;2022-09-09T00:27:43;100076.59;;;19.22;67.32
48015;BME280;33780;51.034;7.120;2022-09-09T00:30:19;100074.47;;;19.18;67.21
48015;BME280;33780;51.034;7.120;2022-09-09T00:32:48;100070.31;;;19.15;67.38
48015;BME280;33780;51.034;7.120;2022-09-09T00:35:30;100073.44;;;19.12;67.33
48015;BME280;33780;51.034;7.120;2022-09-09T00:38:01;100072.16;;;19.08;67.43
48015;BME280;33780;51.034;7.120;2022-09-09T00:40:37;100069.88;;;19.05;67.58
48015;BME280;33780;51.034;7.120;2022-09-09T00:43:27;100077.38;;;19.03;67.47
48015;BME280;33780;51.034;7.120;2022-09-09T00:48:54;100075.44;;;18.97;68.01
48015;BME280;33780;51.034;7.120;2022-09-09T01:02:10;100073.97;;;18.94;68.22
48015;BME280;33780;51.034;7.120;2022-09-09T01:04:38;100070.44;;;18.94;68.12
48015;BME280;33780;51.034;7.120;2022-09-09T01:07:13;100074.81;;;18.95;67.91
48015;BME280;33780;51.034;7.120;2022-09-09T01:09:58;100072.72;;;18.97;67.83
48015;BME280;33780;51.034;7.120;2022-09-09T01:12:43;100079.81;;;18.98;68.09
48015;BME280;33780;51.034;7.120;2022-09-09T01:15:22;100072.53;;;18.98;68.00
48015;BME280;33780;51.034;7.120;2022-09-09T01:21:14;100061.88;;;18.97;67.93
48015;BME280;33780;51.034;7.120;2022-09-09T01:26:19;100075.44;;;18.97;67.80
48015;BME280;33780;51.034;7.120;2022-09-09T01:28:47;100073.56;;;18.97;67.80
48015;BME280;33780;51.034;7.120;2022-09-09T01:31:20;100073.56;;;18.97;67.81
48015;BME280;33780;51.034;7.120;2022-09-09T01:33:47;100070.84;;;18.97;67.82
48015;BME280;33780;51.034;7.120;2022-09-09T01:36:18;100071.91;;;18.96;67.59
48015;BME280;33780;51.034;7.120;2022-09-09T01:38:45;100073.56;;;18.97;67.35
48015;BME280;33780;51.034;7.120;2022-09-09T01:41:11;100074.63;;;18.96;67.80
48015;BME280;33780;51.034;7.120;2022-09-09T01:43:37;100072.94;;;18.95;67.60
48015;BME280;33780;51.034;7.120;2022-09-09T01:46:02;100080.25;;;18.95;67.71
48015;BME280;33780;51.034;7.120;2022-09-09T01:48:28;100079.41;;;18.94;67.77
48015;BME280;33780;51.034;7.120;2022-09-09T01:50:54;100079.59;;;18.93;67.92
48015;BME280;33780;51.034;7.120;2022-09-09T01:53:21;100076.25;;;18.91;67.79
48015;BME280;33780;51.034;7.120;2022-09-09T01:56:05;100077.50;;;18.88;67.76
48015;BME280;33780;51.034;7.120;2022-09-09T02:02:01;100081.00;;;18.82;67.93
48015;BME280;33780;51.034;7.120;2022-09-09T02:07:02;100083.91;;;18.81;67.71
48015;BME280;33780;51.034;7.120;2022-09-09T02:09:30;100078.28;;;18.82;68.05
48015;BME280;33780;51.034;7.120;2022-09-09T02:12:06;100079.31;;;18.81;67.83
48015;BME280;33780;51.034;7.120;2022-09-09T02:14:41;100081.00;;;18.82;67.88
48015;BME280;33780;51.034;7.120;2022-09-09T02:17:09;100084.75;;;18.81;67.34
48015;BME280;33780;51.034;7.120;2022-09-09T02:19:42;100078.28;;;18.82;67.58
48015;BME280;33780;51.034;7.120;2022-09-09T02:22:11;100072.66;;;18.84;67.57
48015;BME280;33780;51.034;7.120;2022-09-09T02:24:39;100076.22;;;18.84;67.63
48015;BME280;33780;51.034;7.120;2022-09-09T02:27:06;100081.63;;;18.84;67.92
48015;BME280;33780;51.034;7.120;2022-09-09T02:29:40;100068.91;;;18.85;67.91
48015;BME280;33780;51.034;7.120;2022-09-09T02:32:14;100072.50;;;18.85;67.89
48015;BME280;33780;51.034;7.120;2022-09-09T02:34:44;100068.91;;;18.85;67.89
48015;BME280;33780;51.034;7.120;2022-09-09T02:37:11;100074.34;;;18.85;67.96
48015;BME280;33780;51.034;7.120;2022-09-09T02:39:37;100072.50;;;18.85;67.53
48015;BME280;33780;51.034;7.120;2022-09-09T02:42:04;100073.50;;;18.84;67.91
48015;BME280;33780;51.034;7.120;2022-09-09T02:44:29;100069.94;;;18.84;68.08
48015;BME280;33780;51.034;7.120;2022-09-09T02:47:07;100071.63;;;18.85;67.94
48015;BME280;33780;51.034;7.120;2022-09-09T02:52:14;100069.13;;;18.83;68.09
48015;BME280;33780;51.034;7.120;2022-09-09T02:54:43;100071.81;;;18.83;67.86
48015;BME280;33780;51.034;7.120;2022-09-09T02:57:27;100069.94;;;18.84;67.94
48015;BME280;33780;51.034;7.120;2022-09-09T02:59:57;100068.06;;;18.84;68.02
48015;BME280;33780;51.034;7.120;2022-09-09T03:02:23;100070.78;;;18.84;67.94
48015;BME280;33780;51.034;7.120;2022-09-09T03:04:50;100067.25;;;18.84;67.64
48015;BME280;33780;51.034;7.120;2022-09-09T03:07:18;100063.69;;;18.83;67.78
48015;BME280;33780;51.034;7.120;2022-09-09T03:09:43;100066.41;;;18.83;67.72
48015;BME280;33780;51.034;7.120;2022-09-09T03:12:10;100062.66;;;18.84;67.96
48015;BME280;33780;51.034;7.120;2022-09-09T03:14:36;100059.94;;;18.84;68.04
48015;BME280;33780;51.034;7.120;2022-09-09T03:17:04;100061.81;;;18.84;67.81
48015;BME280;33780;51.034;7.120;2022-09-09T03:19:30;100064.53;;;18.84;67.76
48015;BME280;33780;51.034;7.120;2022-09-09T03:21:55;100058.28;;;18.83;67.67
48015;BME280;33780;51.034;7.120;2022-09-09T03:24:21;100057.44;;;18.83;67.62
48015;BME280;33780;51.034;7.120;2022-09-09T03:26:47;100055.75;;;18.82;67.85
48015;BME280;33780;51.034;7.120;2022-09-09T03:29:13;100049.50;;;18.81;67.85
48015;BME280;33780;51.034;7.120;2022-09-09T03:31:39;100037.00;;;18.80;68.07
48015;BME280;33780;51.034;7.120;2022-09-09T03:34:05;100047.19;;;18.78;67.84
48015;BME280;33780;51.034;7.120;2022-09-09T03:36:31;100051.78;;;18.78;68.14
48015;BME280;33780;51.034;7.120;2022-09-09T03:38:57;100052.00;;;18.76;67.73
48015;BME280;33780;51.034;7.120;2022-09-09T03:41:23;100049.28;;;18.76;67.68
48015;BME280;33780;51.034;7.120;2022-09-09T03:43:50;100052.81;;;18.77;67.52
48015;BME280;33780;51.034;7.120;2022-09-09T03:46:17;100056.59;;;18.76;67.90
48015;BME280;33780;51.034;7.120;2022-09-09T03:48:43;100056.59;;;18.76;67.94
48015;BME280;33780;51.034;7.120;2022-09-09T03:51:08;100056.59;;;18.76;68.02
48015;BME280;33780;51.034;7.120;2022-09-09T03:53:33;100050.31;;;18.75;68.14
48015;BME280;33780;51.034;7.120;2022-09-09T03:55:59;100055.75;;;18.75;68.02
48015;BME280;33780;51.034;7.120;2022-09-09T03:58:25;100062.00;;;18.76;67.83
48015;BME280;33780;51.034;7.120;2022-09-09T04:01:03;100058.47;;;18.75;67.87
48015;BME280;33780;51.034;7.120;2022-09-09T04:03:29;100055.75;;;18.75;67.82
48015;BME280;33780;51.034;7.120;2022-09-09T04:05:56;100059.50;;;18.74;67.73
48015;BME280;33780;51.034;7.120;2022-09-09T04:08:22;100061.38;;;18.74;67.69
48015;BME280;33780;51.034;7.120;2022-09-09T04:10:48;100061.38;;;18.74;67.64
48015;BME280;33780;51.034;7.120;2022-09-09T04:13:15;100063.25;;;18.73;67.70
48015;BME280;33780;51.034;7.120;2022-09-09T04:15:42;100063.25;;;18.73;67.70
48015;BME280;33780;51.034;7.120;2022-09-09T04:18:08;100059.69;;;18.73;67.53
48015;BME280;33780;51.034;7.120;2022-09-09T04:20:33;100050.72;;;18.72;67.83
48015;BME280;33780;51.034;7.120;2022-09-09T04:22:59;100051.56;;;18.73;67.90
48015;BME280;33780;51.034;7.120;2022-09-09T04:25:24;100054.47;;;18.71;67.79
48015;BME280;33780;51.034;7.120;2022-09-09T04:27:54;100051.78;;;18.71;67.69
48015;BME280;33780;51.034;7.120;2022-09-09T04:30:20;100050.94;;;18.70;67.92
48015;BME280;33780;51.034;7.120;2022-09-09T04:32:46;100044.47;;;18.71;67.93
48015;BME280;33780;51.034;7.120;2022-09-09T04:35:11;100052.59;;;18.71;67.89
48015;BME280;33780;51.034;7.120;2022-09-09T04:37:36;100047.38;;;18.70;67.66
48015;BME280;33780;51.034;7.120;2022-09-09T04:40:02;100053.84;;;18.69;68.08
48015;BME280;33780;51.034;7.120;2022-09-09T04:42:27;100054.88;;;18.68;67.84
48015;BME280;33780;51.034;7.120;2022-09-09T04:44:52;100056.75;;;18.67;67.77
48015;BME280;33780;51.034;7.120;2022-09-09T04:47:18;100061.31;;;18.67;67.33
48015;BME280;33780;51.034;7.120;2022-09-09T04:49:43;100071.16;;;18.68;67.69
48015;BME280;33780;51.034;7.120;2022-09-09T04:52:08;100065.91;;;18.66;67.42
48015;BME280;33780;51.034;7.120;2022-09-09T04:54:33;100069.44;;;18.67;67.45
48015;BME280;33780;51.034;7.120;2022-09-09T04:56:59;100078.44;;;18.67;67.66
48015;BME280;33780;51.034;7.120;2022-09-09T04:59:24;100075.72;;;18.67;67.53
48015;BME280;33780;51.034;7.120;2022-09-09T05:01:50;100077.41;;;18.68;67.43
48015;BME280;33780;51.034;7.120;2022-09-09T05:04:16;100067.59;;;18.67;67.47
48015;BME280;33780;51.034;7.120;2022-09-09T05:06:41;100064.03;;;18.67;67.46
48015;BME280;33780;51.034;7.120;2022-09-09T05:09:08;100065.72;;;18.68;67.33
48015;BME280;33780;51.034;7.120;2022-09-09T05:11:34;100071.16;;;18.68;67.34
48015;BME280;33780;51.034;7.120;2022-09-09T05:14:02;100074.69;;;18.68;67.28
48015;BME280;33780;51.034;7.120;2022-09-09T05:16:27;100077.41;;;18.68;67.55
48015;BME280;33780;51.034;7.120;2022-09-09T05:18:53;100075.53;;;18.69;67.59
48015;BME280;33780;51.034;7.120;2022-09-09T05:21:20;100074.69;;;18.68;67.68
48015;BME280;33780;51.034;7.120;2022-09-09T05:23:46;100067.41;;;18.69;67.78
48015;BME280;33780;51.034;7.120;2022-09-09T05:26:18;100068.44;;;18.68;67.55
48015;BME280;33780;51.034;7.120;2022-09-09T05:28:44;100066.56;;;18.68;67.63
48015;BME280;33780;51.034;7.120;2022-09-09T05:31:11;100062.19;;;18.67;67.55
48015;BME280;33780;51.034;7.120;2022-09-09T05:33:38;100057.59;;;18.68;67.59
48015;BME280;33780;51.034;7.120;2022-09-09T05:36:07;100065.91;;;18.66;67.51
48015;BME280;33780;51.034;7.120;2022-09-09T05:38:34;100067.59;;;18.67;67.59
48015;BME280;33780;51.034;7.120;2022-09-09T05:41:00;100075.06;;;18.65;67.83
48015;BME280;33780;51.034;7.120;2022-09-09T05:43:26;100071.31;;;18.66;68.19
48015;BME280;33780;51.034;7.120;2022-09-09T05:46:24;100074.25;;;18.65;68.45
48015;BME280;33780;51.034;7.120;2022-09-09T05:48:51;100080.69;;;18.64;68.44
48015;BME280;33780;51.034;7.120;2022-09-09T05:51:22;100080.03;;;18.62;68.78
48015;BME280;33780;51.034;7.120;2022-09-09T05:53:50;100073.78;;;18.61;68.96
48015;BME280;33780;51.034;7.120;2022-09-09T05:56:22;100083.97;;;18.59;69.26
48015;BME280;33780;51.034;7.120;2022-09-09T05:58:49;100090.44;;;18.58;69.45
48015;BME280;33780;51.034;7.120;2022-09-09T06:01:18;100078.31;;;18.54;69.49
48015;BME280;33780;51.034;7.120;2022-09-09T06:03:45;100074.78;;;18.54;69.41
48015;BME280;33780;51.034;7.120;2022-09-09T06:06:16;100076.66;;;18.53;69.16
48015;BME280;33780;51.034;7.120;2022-09-09T06:08:43;100079.38;;;18.53;69.30
48015;BME280;33780;51.034;7.120;2022-09-09T06:11:13;100074.78;;;18.54;69.47
48015;BME280;33780;51.034;7.120;2022-09-09T06:13:39;100082.06;;;18.53;69.56
48015;BME280;33780;51.034;7.120;2022-09-09T06:16:15;100071.25;;;18.53;69.52
48015;BME280;33780;51.034;7.120;2022-09-09T06:18:42;100079.16;;;18.55;69.83
48015;BME280;33780;51.034;7.120;2022-09-09T06:21:13;100077.09;;;18.57;69.93
48015;BME280;33780;51.034;7.120;2022-09-09T06:23:40;100079.81;;;18.57;69.77
48015;BME280;33780;51.034;7.120;2022-09-09T06:26:12;100077.94;;;18.57;69.71
48015;BME280;33780;51.034;7.120;2022-09-09T06:28:38;100076.88;;;18.58;69.67
48015;BME280;33780;51.034;7.120;2022-09-09T06:31:05;100083.13;;;18.59;69.71
48015;BME280;33780;51.034;7.120;2022-09-09T06:33:32;100077.53;;;18.60;69.82
48015;BME280;33780;51.034;7.120;2022-09-09T06:36:00;100071.91;;;18.62;69.79
48015;BME280;33780;51.034;7.120;2022-09-09T06:38:26;100071.72;;;18.63;69.66
48015;BME280;33780;51.034;7.120;2022-09-09T06:40:55;100073.41;;;18.64;69.73
48015;BME280;33780;51.034;7.120;2022-09-09T06:43:25;100076.94;;;18.65;69.74
48015;BME280;33780;51.034;7.120;2022-09-09T06:46:28;100075.06;;;18.65;69.72
48015;BME280;33780;51.034;7.120;2022-09-09T06:48:56;100076.09;;;18.64;69.92
48015;BME280;33780;51.034;7.120;2022-09-09T06:51:26;100076.09;;;18.64;69.71
48015;BME280;33780;51.034;7.120;2022-09-09T06:53:54;100077.78;;;18.65;69.54
48015;BME280;33780;51.034;7.120;2022-09-09T06:56:24;100070.31;;;18.67;69.38
48015;BME280;33780;51.034;7.120;2022-09-09T06:58:51;100069.06;;;18.70;69.50
48015;BME280;33780;51.034;7.120;2022-09-09T07:01:24;100074.94;;;18.74;69.37
48015;BME280;33780;51.034;7.120;2022-09-09T07:03:52;100081.41;;;18.79;68.96
48015;BME280;33780;51.034;7.120;2022-09-09T07:06:22;100078.09;;;18.84;69.51
48015;BME280;33780;51.034;7.120;2022-09-09T07:08:52;100075.00;;;18.87;69.45
48015;BME280;33780;51.034;7.120;2022-09-09T07:11:20;100073.56;;;18.91;69.60
48015;BME280;33780;51.034;7.120;2022-09-09T07:13:46;100072.94;;;18.95;69.10
48015;BME280;33780;51.034;7.120;2022-09-09T07:16:14;100079.81;;;18.98;69.10
48015;BME280;33780;51.034;7.120;2022-09-09T07:18:40;100077.38;;;19.03;68.99
48015;BME280;33780;51.034;7.120;2022-09-09T07:21:07;100080.50;;;19.07;68.98
48015;BME280;33780;51.034;7.120;2022-09-09T07:23:33;100079.91;;;19.11;68.84
48015;BME280;33780;51.034;7.120;2022-09-09T07:26:00;100082.81;;;19.16;68.65
48015;BME280;33780;51.034;7.120;2022-09-09T07:28:26;100083.69;;;19.23;68.35
48015;BME280;33780;51.034;7.120;2022-09-09T07:30:54;100089.34;;;19.28;68.50
48015;BME280;33780;51.034;7.120;2022-09-09T07:33:19;100089.78;;;19.32;68.41
48015;BME280;33780;51.034;7.120;2022-09-09T07:35:45;100091.03;;;19.36;68.22
48015;BME280;33780;51.034;7.120;2022-09-09T07:38:10;100092.50;;;19.39;68.00
48015;BME280;33780;51.034;7.120;2022-09-09T07:40:36;100095.03;;;19.40;67.43
48015;BME280;33780;51.034;7.120;2022-09-09T07:43:01;100099.41;;;19.41;67.30
48015;BME280;33780;51.034;7.120;2022-09-09T07:45:26;100103.59;;;19.44;66.97
48015;BME280;33780;51.034;7.120;2022-09-09T07:47:53;100097.97;;;19.45;67.00
48015;BME280;33780;51.034;7.120;2022-09-09T07:50:19;100096.72;;;19.48;67.13
48015;BME280;33780;51.034;7.120;2022-09-09T07:52:44;100106.31;;;19.50;66.63
48015;BME280;33780;51.034;7.120;2022-09-09T07:55:09;100103.19;;;19.53;66.59
48015;BME280;33780;51.034;7.120;2022-09-09T07:57:35;100103.47;;;19.58;66.58
48015;BME280;33780;51.034;7.120;2022-09-09T08:00:03;100108.25;;;19.63;66.51
48015;BME280;33780;51.034;7.120;2022-09-09T08:02:28;100114.31;;;19.65;66.17
48015;BME280;33780;51.034;7.120;2022-09-09T08:04:54;100110.97;;;19.70;66.03
48015;BME280;33780;51.034;7.120;2022-09-09T08:07:20;100109.72;;;19.72;65.95
48015;BME280;33780;51.034;7.120;2022-09-09T08:09:46;100113.91;;;19.75;65.30
48015;BME280;33780;51.034;7.120;2022-09-09T08:12:12;100111.00;;;19.76;65.24
48015;BME280;33780;51.034;7.120;2022-09-09T08:14:38;100108.94;;;19.78;64.70
48015;BME280;33780;51.034;7.120;2022-09-09T08:17:04;100103.28;;;19.80;64.44
48015;BME280;33780;51.034;7.120;2022-09-09T08:19:29;100109.56;;;19.80;64.10
48015;BME280;33780;51.034;7.120;2022-09-09T08:21:56;100110.38;;;19.81;64.08
48015;BME280;33780;51.034;7.120;2022-09-09T08:24:21;100108.28;;;19.83;63.48
48015;BME280;33780;51.034;7.120;2022-09-09T08:26:48;100102.66;;;19.84;63.82
48015;BME280;33780;51.034;7.120;2022-09-09T08:29:15;100111.22;;;19.88;63.81
48015;BME280;33780;51.034;7.120;2022-09-09T08:31:52;100109.97;;;19.90;63.84
48015;BME280;33780;51.034;7.120;2022-09-09T08:34:20;100107.03;;;19.92;63.22
48015;BME280;33780;51.034;7.120;2022-09-09T08:36:46;100109.56;;;19.94;62.79
48015;BME280;33780;51.034;7.120;2022-09-09T08:39:16;100112.91;;;19.96;62.76
48015;BME280;33780;51.034;7.120;2022-09-09T08:44:31;100105.81;;;20.01;62.18
48015;BME280;33780;51.034;7.120;2022-09-09T08:50:04;100108.72;;;20.06;61.72
48015;BME280;33780;51.034;7.120;2022-09-09T08:55:54;100113.34;;;20.12;60.40
48015;BME280;33780;51.034;7.120;2022-09-09T09:11:38;100130.25;;;20.28;58.20
48015;BME280;33780;51.034;7.120;2022-09-09T09:14:24;100130.47;;;20.26;58.34
48015;BME280;33780;51.034;7.120;2022-09-09T09:17:10;100130.69;;;20.25;58.64
48015;BME280;33780;51.034;7.120;2022-09-09T09:19:39;100126.91;;;20.26;58.16
48015;BME280;33780;51.034;7.120;2022-09-09T09:25:20;100130.06;;;20.36;58.22
48015;BME280;33780;51.034;7.120;2022-09-09T09:27:59;100130.06;;;20.42;58.30
48015;BME280;33780;51.034;7.120;2022-09-09T09:30:57;100120.06;;;20.49;58.11
48015;BME280;33780;51.034;7.120;2022-09-09T09:33:51;100124.63;;;20.56;58.20
48015;BME280;33780;51.034;7.120;2022-09-09T09:36:19;100124.00;;;20.60;57.51
48015;BME280;33780;51.034;7.120;2022-09-09T09:38:57;100124.81;;;20.61;56.73
48015;BME280;33780;51.034;7.120;2022-09-09T09:41:35;100130.25;;;20.61;56.82
48015;BME280;33780;51.034;7.120;2022-09-09T09:44:02;100120.44;;;20.60;56.35
48015;BME280;33780;51.034;7.120;2022-09-09T09:46:27;100122.75;;;20.56;55.67
48015;BME280;33780;51.034;7.120;2022-09-09T09:49:04;100128.63;;;20.53;56.28
48015;BME280;33780;51.034;7.120;2022-09-09T09:51:31;100125.69;;;20.48;56.52
48015;BME280;33780;51.034;7.120;2022-09-09T09:54:33;100126.09;;;20.45;56.96
48015;BME280;33780;51.034;7.120;2022-09-09T09:57:09;100132.56;;;20.44;56.45
48015;BME280;33780;51.034;7.120;2022-09-09T09:59:36;100127.97;;;20.44;55.96
48015;BME280;33780;51.034;7.120;2022-09-09T10:02:20;100133.41;;;20.44;56.44
48015;BME280;33780;51.034;7.120;2022-09-09T10:05:01;100134.91;;;20.47;56.26
48015;BME280;33780;51.034;7.120;2022-09-09T10:07:26;100133.44;;;20.51;56.38
48015;BME280;33780;51.034;7.120;2022-09-09T10:09:54;100133.41;;;20.58;56.27
48015;BME280;33780;51.034;7.120;2022-09-09T10:12:45;100133.81;;;20.61;56.08
48015;BME280;33780;51.034;7.120;2022-09-09T10:18:17;100123.97;;;20.73;55.76
48015;BME280;33780;51.034;7.120;2022-09-09T10:29:18;100128.34;;;20.88;54.42
48015;BME280;33780;51.034;7.120;2022-09-09T10:37:41;100122.50;;;20.84;53.50
48015;BME280;33780;51.034;7.120;2022-09-09T10:47:46;100114.16;;;20.72;54.36
48015;BME280;33780;51.034;7.120;2022-09-09T10:49:54;100116.25;;;20.70;54.47
48015;BME280;33780;51.034;7.120;2022-09-09T10:55:58;100115.41;;;20.70;54.61
48015;BME280;33780;51.034;7.120;2022-09-09T10:58:37;100114.16;;;20.72;54.84
48015;BME280;33780;51.034;7.120;2022-09-09T11:01:14;100094.69;;;20.75;54.79
48015;BME280;33780;51.034;7.120;2022-09-09T11:03:41;100099.25;;;20.81;54.25
48015;BME280;33780;51.034;7.120;2022-09-09T11:06:30;100104.25;;;20.91;54.30
48015;BME280;33780;51.034;7.120;2022-09-09T11:09:00;100107.78;;;20.98;54.25
48015;BME280;33780;51.034;7.120;2022-09-09T11:11:37;100098.78;;;21.04;54.01
48015;BME280;33780;51.034;7.120;2022-09-09T11:14:14;100100.00;;;21.08;53.60
48015;BME280;33780;51.034;7.120;2022-09-09T11:16:45;100102.69;;;21.15;53.04
48015;BME280;33780;51.034;7.120;2022-09-09T11:22:03;100088.69;;;21.25;52.98
48015;BME280;33780;51.034;7.120;2022-09-09T11:24:35;100089.47;;;21.32;53.03
48015;BME280;33780;51.034;7.120;2022-09-09T11:27:20;100083.56;;;21.41;52.84
48015;BME280;33780;51.034;7.120;2022-09-09T11:35:33;100084.34;;;21.55;52.32
48015;BME280;33780;51.034;7.120;2022-09-09T11:40:38;100093.34;;;21.56;51.94
48015;BME280;33780;51.034;7.120;2022-09-09T11:43:16;100090.16;;;21.59;51.20
48015;BME280;33780;51.034;7.120;2022-09-09T11:45:52;100084.94;;;21.57;51.30
48015;BME280;33780;51.034;7.120;2022-09-09T11:48:38;100086.59;;;21.58;51.53
48015;BME280;33780;51.034;7.120;2022-09-09T11:51:09;100083.28;;;21.56;50.86
48015;BME280;33780;51.034;7.120;2022-09-09T11:54:03;100084.53;;;21.54;50.74
48015;BME280;33780;51.034;7.120;2022-09-09T11:56:48;100077.63;;;21.51;51.24
48015;BME280;33780;51.034;7.120;2022-09-09T11:59:24;100086.63;;;21.52;51.83
48015;BME280;33780;51.034;7.120;2022-09-09T12:02:19;100082.00;;;21.52;51.00
48015;BME280;33780;51.034;7.120;2022-09-09T12:05:01;100079.06;;;21.54;51.42
48015;BME280;33780;51.034;7.120;2022-09-09T12:07:55;100087.25;;;21.54;51.35
48015;BME280;33780;51.034;7.120;2022-09-09T12:10:26;100084.53;;;21.54;51.11
48015;BME280;33780;51.034;7.120;2022-09-09T12:12:54;100079.28;;;21.52;50.91
48015;BME280;33780;51.034;7.120;2022-09-09T12:15:25;100079.75;;;21.49;50.92
48015;BME280;33780;51.034;7.120;2022-09-09T12:17:55;100082.91;;;21.46;51.05
48015;BME280;33780;51.034;7.120;2022-09-09T12:23:15;100078.34;;;21.40;51.00
48015;BME280;33780;51.034;7.120;2022-09-09T12:25:56;100093.22;;;21.37;51.74
48015;BME280;33780;51.034;7.120;2022-09-09T12:28:33;100082.75;;;21.34;51.43
48015;BME280;33780;51.034;7.120;2022-09-09T12:31:32;100076.06;;;21.30;52.01
48015;BME280;33780;51.034;7.120;2022-09-09T12:34:10;100074.84;;;21.26;51.47
48015;BME280;33780;51.034;7.120;2022-09-09T12:36:38;100071.91;;;21.21;51.00
48015;BME280;33780;51.034;7.120;2022-09-09T12:39:21;100075.69;;;21.20;51.21
48015;BME280;33780;51.034;7.120;2022-09-09T12:41:52;100072.75;;;21.22;51.35
48015;BME280;33780;51.034;7.120;2022-09-09T12:44:22;100076.94;;;21.24;50.99
48015;BME280;33780;51.034;7.120;2022-09-09T12:46:48;100062.69;;;21.29;50.49
48015;BME280;33780;51.034;7.120;2022-09-09T12:49:27;100071.69;;;21.29;50.24
48015;BME280;33780;51.034;7.120;2022-09-09T12:51:54;100064.13;;;21.31;50.09
48015;BME280;33780;51.034;7.120;2022-09-09T12:54:21;100060.34;;;21.32;50.55
48015;BME280;33780;51.034;7.120;2022-09-09T12:56:47;100059.31;;;21.33;50.33
48015;BME280;33780;51.034;7.120;2022-09-09T12:59:25;100055.13;;;21.31;49.72
48015;BME280;33780;51.034;7.120;2022-09-09T13:01:57;100059.13;;;21.28;49.67
48015;BME280;33780;51.034;7.120;2022-09-09T13:04:23;100050.56;;;21.25;50.48
48015;BME280;33780;51.034;7.120;2022-09-09T13:06:48;100054.53;;;21.22;50.35
48015;BME280;33780;51.034;7.120;2022-09-09T13:09:14;100057.47;;;21.21;50.86
48015;BME280;33780;51.034;7.120;2022-09-09T13:11:49;100059.38;;;21.20;50.54
48015;BME280;33780;51.034;7.120;2022-09-09T13:14:18;100065.03;;;21.19;50.19
48015;BME280;33780;51.034;7.120;2022-09-09T13:16:58;100053.91;;;21.20;50.28
48015;BME280;33780;51.034;7.120;2022-09-09T13:19:24;100054.75;;;21.21;50.30
48015;BME280;33780;51.034;7.120;2022-09-09T13:21:54;100052.47;;;21.24;49.92
48015;BME280;33780;51.034;7.120;2022-09-09T13:24:31;100041.53;;;21.31;50.10
48015;BME280;33780;51.034;7.120;2022-09-09T13:27:41;100040.22;;;21.40;49.74
48015;BME280;33780;51.034;7.120;2022-09-09T13:30:20;100037.91;;;21.44;50.40
48015;BME280;33780;51.034;7.120;2022-09-09T13:33:06;100037.06;;;21.43;50.89
48015;BME280;33780;51.034;7.120;2022-09-09T13:38:14;100033.94;;;21.39;51.73
48015;BME280;33780;51.034;7.120;2022-09-09T13:40:40;100038.78;;;21.37;51.66
48015;BME280;33780;51.034;7.120;2022-09-09T13:43:21;100047.13;;;21.36;52.08
48015;BME280;33780;51.034;7.120;2022-09-09T13:46:02;100036.31;;;21.29;52.35
48015;BME280;33780;51.034;7.120;2022-09-09T13:48:28;100031.72;;;21.23;53.28
48015;BME280;33780;51.034;7.120;2022-09-09T13:51:04;100043.03;;;21.20;53.55
48015;BME280;33780;51.034;7.120;2022-09-09T13:53:30;100045.34;;;21.17;54.01
48015;BME280;33780;51.034;7.120;2022-09-09T13:55:57;100047.22;;;21.16;54.58
48015;BME280;33780;51.034;7.120;2022-09-09T13:58:23;100038.22;;;21.16;54.61
48015;BME280;33780;51.034;7.120;2022-09-09T14:00:50;100044.72;;;21.15;54.99
48015;BME280;33780;51.034;7.120;2022-09-09T14:03:16;100036.34;;;21.16;55.61
48015;BME280;33780;51.034;7.120;2022-09-09T14:05:41;100041.38;;;21.19;55.27
48015;BME280;33780;51.034;7.120;2022-09-09T14:08:15;100027.53;;;21.21;54.98
48015;BME280;33780;51.034;7.120;2022-09-09T14:10:41;100022.69;;;21.29;55.04
48015;BME280;33780;51.034;7.120;2022-09-09T14:13:06;100019.22;;;21.47;54.77
48015;BME280;33780;51.034;7.120;2022-09-09T14:15:33;100022.53;;;21.56;55.05
48015;BME280;33780;51.034;7.120;2022-09-09T14:17:58;100009.53;;;21.58;54.37
48015;BME280;33780;51.034;7.120;2022-09-09T14:20:24;100009.97;;;21.55;54.22
48015;BME280;33780;51.034;7.120;2022-09-09T14:22:49;100011.66;;;21.49;54.28
48015;BME280;33780;51.034;7.120;2022-09-09T14:25:15;100018.41;;;21.47;54.14
48015;BME280;33780;51.034;7.120;2022-09-09T14:27:40;100009.84;;;21.43;53.07
48015;BME280;33780;51.034;7.120;2022-09-09T14:30:08;100016.78;;;21.39;52.55
48015;BME280;33780;51.034;7.120;2022-09-09T14:32:34;100014.47;;;21.36;52.22
48015;BME280;33780;51.034;7.120;2022-09-09T14:34:59;100026.63;;;21.33;52.46
48015;BME280;33780;51.034;7.120;2022-09-09T14:37:24;100031.69;;;21.30;52.38
48015;BME280;33780;51.034;7.120;2022-09-09T14:39:50;100037.56;;;21.27;52.83
48015;BME280;33780;51.034;7.120;2022-09-09T14:42:16;100037.16;;;21.23;52.67
48015;BME280;33780;51.034;7.120;2022-09-09T14:44:42;100034.44;;;21.17;53.50
48015;BME280;33780;51.034;7.120;2022-09-09T14:47:08;100053.53;;;21.10;53.95
48015;BME280;33780;51.034;7.120;2022-09-09T14:49:34;100060.69;;;21.04;54.35